sensor_id;sensor_type;location;lat;lon;timestamp;pressure;altitude;pressure_sealevel;temperature;humidity
58698;BME280;44475;53.206;-6.106;2023-11-21T00:01:12;102257.66;;;23.07;44.17
58698;BME280;44475;53.206;-6.106;2023-11-21T00:03:38;102253.19;;;23.06;44.30
58698;BME280;44475;53.206;-6.106;2023-11-21T00:06:05;102261.00;;;22.98;44.40
58698;BME280;44475;53.206;-6.106;2023-11-21T00:08:34;102258.63;;;23.06;44.23
58698;BME280;44475;53.206;-6.106;2023-11-21T00:11:01;102268.59;;;23.07;44.26
58698;BME280;44475;53.206;-6.106;2023-11-21T00:13:27;102286.38;;;23.00;44.46
58698;BME280;44475;53.206;-6.106;2023-11-21T00:15:53;102289.69;;;23.05;44.05
58698;BME280;44475;53.206;-6.106;2023-11-21T00:18:20;102291.53;;;23.05;44.50
58698;BME280;44475;53.206;-6.106;2023-11-21T00:20:46;102293.28;;;23.21;43.75
58698;BME280;44475;53.206;-6.106;2023-11-21T00:23:12;102293.09;;;23.09;43.95
58698;BME280;44475;53.206;-6.106;2023-11-21T00:25:38;102291.84;;;23.00;44.58
58698;BME280;44475;53.206;-6.106;2023-11-21T00:28:05;102294.78;;;23.12;44.20
58698;BME280;44475;53.206;-6.106;2023-11-21T00:30:32;102313.50;;;23.18;43.80
58698;BME280;44475;53.206;-6.106;2023-11-21T00:32:58;102309.94;;;23.03;44.43
58698;BME280;44475;53.206;-6.106;2023-11-21T00:35:25;102318.59;;;23.09;44.12
58698;BME280;44475;53.206;-6.106;2023-11-21T00:37:51;102302.47;;;23.05;44.10
58698;BME280;44475;53.206;-6.106;2023-11-21T00:40:18;102303.84;;;23.12;43.91
58698;BME280;44475;53.206;-6.106;2023-11-21T00:42:48;102306.16;;;23.33;43.74
58698;BME280;44475;53.206;-6.106;2023-11-21T00:45:14;102313.13;;;23.24;43.93
58698;BME280;44475;53.206;-6.106;2023-11-21T00:47:40;102310.19;;;23.13;44.07
58698;BME280;44475;53.206;-6.106;2023-11-21T00:50:07;102296.72;;;23.09;44.14
58698;BME280;44475;53.206;-6.106;2023-11-21T00:52:33;102323.66;;;23.16;44.23
58698;BME280;44475;53.206;-6.106;2023-11-21T00:54:59;102322.03;;;23.13;44.08
58698;BME280;44475;53.206;-6.106;2023-11-21T00:57:26;102332.34;;;23.08;44.13
58698;BME280;44475;53.206;-6.106;2023-11-21T00:59:52;102338.72;;;23.23;43.68
58698;BME280;44475;53.206;-6.106;2023-11-21T01:02:18;102347.22;;;23.04;44.16
58698;BME280;44475;53.206;-6.106;2023-11-21T01:04:45;102344.75;;;23.28;43.90
58698;BME280;44475;53.206;-6.106;2023-11-21T01:07:11;102342.69;;;23.17;44.09
58698;BME280;44475;53.206;-6.106;2023-11-21T01:09:37;102337.03;;;23.06;44.39
58698;BME280;44475;53.206;-6.106;2023-11-21T01:12:03;102337.34;;;23.01;44.19
58698;BME280;44475;53.206;-6.106;2023-11-21T01:14:29;102334.81;;;22.98;44.14
58698;BME280;44475;53.206;-6.106;2023-11-21T01:16:57;102334.91;;;22.96;44.47
58698;BME280;44475;53.206;-6.106;2023-11-21T01:19:23;102335.09;;;23.08;44.35
58698;BME280;44475;53.206;-6.106;2023-11-21T01:21:50;102340.88;;;23.03;44.54
58698;BME280;44475;53.206;-6.106;2023-11-21T01:24:16;102346.44;;;23.02;44.30
58698;BME280;44475;53.206;-6.106;2023-11-21T01:26:42;102350.94;;;23.03;44.25
58698;BME280;44475;53.206;-6.106;2023-11-21T01:29:09;102354.63;;;23.02;44.44
58698;BME280;44475;53.206;-6.106;2023-11-21T01:31:35;102367.59;;;22.98;44.63
58698;BME280;44475;53.206;-6.106;2023-11-21T01:34:01;102364.19;;;23.09;44.40
58698;BME280;44475;53.206;-6.106;2023-11-21T01:36:31;102375.44;;;23.04;44.15
58698;BME280;44475;53.206;-6.106;2023-11-21T01:38:59;102380.50;;;22.96;44.53
58698;BME280;44475;53.206;-6.106;2023-11-21T01:41:26;102385.59;;;23.02;44.30
58698;BME280;44475;53.206;-6.106;2023-11-21T01:43:53;102379.50;;;22.97;44.54
58698;BME280;44475;53.206;-6.106;2023-11-21T01:46:19;102382.44;;;23.08;44.22
58698;BME280;44475;53.206;-6.106;2023-11-21T01:48:46;102380.31;;;22.99;44.13
58698;BME280;44475;53.206;-6.106;2023-11-21T01:51:15;102386.84;;;22.96;44.27
58698;BME280;44475;53.206;-6.106;2023-11-21T01:53:41;102392.22;;;22.98;44.32
58698;BME280;44475;53.206;-6.106;2023-11-21T01:56:08;102395.44;;;22.90;44.33
58698;BME280;44475;53.206;-6.106;2023-11-21T01:58:34;102405.97;;;22.96;44.15
58698;BME280;44475;53.206;-6.106;2023-11-21T02:01:02;102419.16;;;22.89;44.61
58698;BME280;44475;53.206;-6.106;2023-11-21T02:03:28;102419.84;;;22.93;44.50
58698;BME280;44475;53.206;-6.106;2023-11-21T02:05:54;102421.09;;;22.87;44.72
58698;BME280;44475;53.206;-6.106;2023-11-21T02:08:21;102426.59;;;23.02;44.16
58698;BME280;44475;53.206;-6.106;2023-11-21T02:10:47;102431.84;;;22.91;44.45
58698;BME280;44475;53.206;-6.106;2023-11-21T02:13:13;102419.41;;;22.85;44.46
58698;BME280;44475;53.206;-6.106;2023-11-21T02:15:39;102425.50;;;23.05;44.20
58698;BME280;44475;53.206;-6.106;2023-11-21T02:18:07;102431.75;;;22.92;44.48
58698;BME280;44475;53.206;-6.106;2023-11-21T02:20:33;102439.06;;;22.92;44.23
58698;BME280;44475;53.206;-6.106;2023-11-21T02:23:01;102425.41;;;22.92;44.16
58698;BME280;44475;53.206;-6.106;2023-11-21T02:25:31;102447.06;;;22.95;44.15
58698;BME280;44475;53.206;-6.106;2023-11-21T02:27:58;102457.22;;;22.93;44.52
58698;BME280;44475;53.206;-6.106;2023-11-21T02:30:24;102437.00;;;22.95;44.25
58698;BME280;44475;53.206;-6.106;2023-11-21T02:32:52;102444.31;;;22.95;44.40
58698;BME280;44475;53.206;-6.106;2023-11-21T02:35:23;102442.38;;;22.97;44.42
58698;BME280;44475;53.206;-6.106;2023-11-21T02:37:52;102446.00;;;22.97;44.29
58698;BME280;44475;53.206;-6.106;2023-11-21T02:40:18;102441.72;;;22.93;44.56
58698;BME280;44475;53.206;-6.106;2023-11-21T02:42:49;102458.13;;;22.93;44.34
58698;BME280;44475;53.206;-6.106;2023-11-21T02:45:17;102459.34;;;22.87;44.34
58698;BME280;44475;53.206;-6.106;2023-11-21T02:47:44;102466.50;;;22.90;44.20
58698;BME280;44475;53.206;-6.106;2023-11-21T02:50:10;102470.91;;;23.07;43.97
58698;BME280;44475;53.206;-6.106;2023-11-21T02:52:36;102476.94;;;22.98;44.43
58698;BME280;44475;53.206;-6.106;2023-11-21T02:55:03;102480.38;;;23.02;44.33
58698;BME280;44475;53.206;-6.106;2023-11-21T02:57:29;102484.41;;;23.11;43.71
58698;BME280;44475;53.206;-6.106;2023-11-21T02:59:55;102492.94;;;23.35;43.39
58698;BME280;44475;53.206;-6.106;2023-11-21T03:02:21;102492.19;;;23.02;43.99
58698;BME280;44475;53.206;-6.106;2023-11-21T03:04:48;102516.41;;;23.08;43.81
58698;BME280;44475;53.206;-6.106;2023-11-21T03:07:15;102513.84;;;23.05;43.99
58698;BME280;44475;53.206;-6.106;2023-11-21T03:09:41;102518.09;;;23.11;44.00
58698;BME280;44475;53.206;-6.106;2023-11-21T03:12:09;102533.19;;;23.02;44.19
58698;BME280;44475;53.206;-6.106;2023-11-21T03:14:35;102520.78;;;22.96;44.22
58698;BME280;44475;53.206;-6.106;2023-11-21T03:17:02;102520.69;;;22.98;44.13
58698;BME280;44475;53.206;-6.106;2023-11-21T03:19:30;102524.59;;;22.94;44.16
58698;BME280;44475;53.206;-6.106;2023-11-21T03:21:57;102520.59;;;22.99;44.08
58698;BME280;44475;53.206;-6.106;2023-11-21T03:24:23;102516.19;;;22.97;44.40
58698;BME280;44475;53.206;-6.106;2023-11-21T03:26:49;102513.28;;;23.00;44.13
58698;BME280;44475;53.206;-6.106;2023-11-21T03:29:17;102515.22;;;22.98;44.25
58698;BME280;44475;53.206;-6.106;2023-11-21T03:31:43;102508.97;;;22.96;44.02
58698;BME280;44475;53.206;-6.106;2023-11-21T03:34:14;102512.31;;;23.01;43.97
58698;BME280;44475;53.206;-6.106;2023-11-21T03:36:40;102518.19;;;23.09;43.92
58698;BME280;44475;53.206;-6.106;2023-11-21T03:39:06;102517.28;;;23.09;43.76
58698;BME280;44475;53.206;-6.106;2023-11-21T03:41:33;102519.81;;;22.97;44.27
58698;BME280;44475;53.206;-6.106;2023-11-21T03:43:59;102532.13;;;23.05;43.77
58698;BME280;44475;53.206;-6.106;2023-11-21T03:46:26;102534.25;;;22.99;43.85
58698;BME280;44475;53.206;-6.106;2023-11-21T03:48:52;102528.88;;;22.98;43.95
58698;BME280;44475;53.206;-6.106;2023-11-21T03:51:18;102531.53;;;22.99;44.08
58698;BME280;44475;53.206;-6.106;2023-11-21T03:53:44;102533.28;;;23.01;43.93
58698;BME280;44475;53.206;-6.106;2023-11-21T03:56:10;102537.88;;;23.00;43.89
58698;BME280;44475;53.206;-6.106;2023-11-21T03:58:36;102533.59;;;23.11;43.52
58698;BME280;44475;53.206;-6.106;2023-11-21T04:01:02;102536.16;;;23.14;43.61
58698;BME280;44475;53.206;-6.106;2023-11-21T04:03:29;102540.84;;;23.26;43.31
58698;BME280;44475;53.206;-6.106;2023-11-21T04:05:55;102547.41;;;23.38;42.84
58698;BME280;44475;53.206;-6.106;2023-11-21T04:08:21;102542.00;;;23.07;43.37
58698;BME280;44475;53.206;-6.106;2023-11-21T04:10:48;102553.63;;;23.26;43.12
58698;BME280;44475;53.206;-6.106;2023-11-21T04:13:14;102553.16;;;23.19;43.32
58698;BME280;44475;53.206;-6.106;2023-11-21T04:15:40;102559.34;;;23.06;43.69
58698;BME280;44475;53.206;-6.106;2023-11-21T04:18:06;102575.00;;;23.04;43.49
58698;BME280;44475;53.206;-6.106;2023-11-21T04:20:32;102568.09;;;23.13;43.13
58698;BME280;44475;53.206;-6.106;2023-11-21T04:22:59;102572.69;;;23.13;43.13
58698;BME280;44475;53.206;-6.106;2023-11-21T04:25:25;102574.16;;;23.18;43.25
58698;BME280;44475;53.206;-6.106;2023-11-21T04:27:51;102579.69;;;23.02;43.43
58698;BME280;44475;53.206;-6.106;2023-11-21T04:30:17;102593.47;;;23.15;43.18
58698;BME280;44475;53.206;-6.106;2023-11-21T04:32:43;102588.78;;;23.17;43.10
58698;BME280;44475;53.206;-6.106;2023-11-21T04:35:10;102597.88;;;23.18;43.08
58698;BME280;44475;53.206;-6.106;2023-11-21T04:37:36;102591.94;;;23.26;42.98
58698;BME280;44475;53.206;-6.106;2023-11-21T04:40:02;102582.44;;;23.17;43.08
58698;BME280;44475;53.206;-6.106;2023-11-21T04:42:35;102587.41;;;23.10;43.25
58698;BME280;44475;53.206;-6.106;2023-11-21T04:45:03;102584.03;;;23.21;43.08
58698;BME280;44475;53.206;-6.106;2023-11-21T04:47:33;102572.06;;;23.07;43.38
58698;BME280;44475;53.206;-6.106;2023-11-21T04:49:59;102578.22;;;23.11;43.20
58698;BME280;44475;53.206;-6.106;2023-11-21T04:52:25;102589.41;;;23.23;42.86
58698;BME280;44475;53.206;-6.106;2023-11-21T04:54:52;102590.63;;;23.17;42.95
58698;BME280;44475;53.206;-6.106;2023-11-21T04:57:20;102592.13;;;23.23;42.81
58698;BME280;44475;53.206;-6.106;2023-11-21T04:59:48;102603.63;;;23.13;42.79
58698;BME280;44475;53.206;-6.106;2023-11-21T05:02:14;102613.94;;;23.08;43.18
58698;BME280;44475;53.206;-6.106;2023-11-21T05:04:41;102615.63;;;23.11;42.96
58698;BME280;44475;53.206;-6.106;2023-11-21T05:07:08;102627.16;;;23.16;42.83
58698;BME280;44475;53.206;-6.106;2023-11-21T05:09:34;102630.66;;;23.03;42.97
58698;BME280;44475;53.206;-6.106;2023-11-21T05:12:01;102625.28;;;23.02;43.37
58698;BME280;44475;53.206;-6.106;2023-11-21T05:14:27;102624.38;;;23.01;43.02
58698;BME280;44475;53.206;-6.106;2023-11-21T05:16:54;102624.84;;;22.93;43.34
58698;BME280;44475;53.206;-6.106;2023-11-21T05:19:20;102628.19;;;22.98;43.05
58698;BME280;44475;53.206;-6.106;2023-11-21T05:21:47;102634.94;;;23.07;43.09
58698;BME280;44475;53.206;-6.106;2023-11-21T05:24:13;102637.31;;;23.14;42.91
58698;BME280;44475;53.206;-6.106;2023-11-21T05:26:39;102632.28;;;23.22;42.66
58698;BME280;44475;53.206;-6.106;2023-11-21T05:29:05;102633.75;;;23.28;42.38
58698;BME280;44475;53.206;-6.106;2023-11-21T05:31:31;102639.44;;;23.08;42.82
58698;BME280;44475;53.206;-6.106;2023-11-21T05:33:57;102647.81;;;23.22;42.74
58698;BME280;44475;53.206;-6.106;2023-11-21T05:36:24;102653.19;;;23.23;42.73
58698;BME280;44475;53.206;-6.106;2023-11-21T05:38:50;102661.16;;;23.12;42.93
58698;BME280;44475;53.206;-6.106;2023-11-21T05:41:16;102654.78;;;23.11;42.93
58698;BME280;44475;53.206;-6.106;2023-11-21T05:43:42;102660.97;;;23.15;42.68
58698;BME280;44475;53.206;-6.106;2023-11-21T05:46:09;102658.81;;;23.20;42.68
58698;BME280;44475;53.206;-6.106;2023-11-21T05:48:35;102664.47;;;23.17;42.56
58698;BME280;44475;53.206;-6.106;2023-11-21T05:51:05;102671.78;;;23.16;42.45
58698;BME280;44475;53.206;-6.106;2023-11-21T05:53:32;102682.28;;;23.24;42.41
58698;BME280;44475;53.206;-6.106;2023-11-21T05:55:58;102667.03;;;23.20;42.61
58698;BME280;44475;53.206;-6.106;2023-11-21T05:58:24;102683.03;;;23.12;42.76
58698;BME280;44475;53.206;-6.106;2023-11-21T06:00:50;102676.75;;;23.09;42.88
58698;BME280;44475;53.206;-6.106;2023-11-21T06:03:16;102684.31;;;23.21;42.67
58698;BME280;44475;53.206;-6.106;2023-11-21T06:05:43;102686.81;;;23.09;42.83
58698;BME280;44475;53.206;-6.106;2023-11-21T06:08:09;102683.34;;;23.05;42.84
58698;BME280;44475;53.206;-6.106;2023-11-21T06:10:36;102688.75;;;23.07;42.74
58698;BME280;44475;53.206;-6.106;2023-11-21T06:13:02;102694.53;;;23.17;42.53
58698;BME280;44475;53.206;-6.106;2023-11-21T06:15:29;102685.66;;;22.97;42.74
58698;BME280;44475;53.206;-6.106;2023-11-21T06:17:55;102699.88;;;23.04;42.61
58698;BME280;44475;53.206;-6.106;2023-11-21T06:20:22;102687.09;;;23.04;43.01
58698;BME280;44475;53.206;-6.106;2023-11-21T06:22:49;102682.69;;;23.02;42.71
58698;BME280;44475;53.206;-6.106;2023-11-21T06:25:16;102703.28;;;23.07;42.51
58698;BME280;44475;53.206;-6.106;2023-11-21T06:27:43;102708.84;;;23.06;42.65
58698;BME280;44475;53.206;-6.106;2023-11-21T06:30:17;102713.00;;;23.13;42.55
58698;BME280;44475;53.206;-6.106;2023-11-21T06:32:45;102712.13;;;23.13;42.69
58698;BME280;44475;53.206;-6.106;2023-11-21T06:35:12;102717.41;;;22.99;42.71
58698;BME280;44475;53.206;-6.106;2023-11-21T06:37:39;102717.59;;;23.13;42.50
58698;BME280;44475;53.206;-6.106;2023-11-21T06:40:05;102732.66;;;23.20;42.40
58698;BME280;44475;53.206;-6.106;2023-11-21T06:42:32;102725.72;;;23.14;42.29
58698;BME280;44475;53.206;-6.106;2023-11-21T06:44:59;102720.66;;;23.23;42.20
58698;BME280;44475;53.206;-6.106;2023-11-21T06:47:29;102716.25;;;23.20;42.44
58698;BME280;44475;53.206;-6.106;2023-11-21T06:49:56;102714.56;;;23.17;42.31
58698;BME280;44475;53.206;-6.106;2023-11-21T06:52:23;102713.19;;;23.10;42.45
58698;BME280;44475;53.206;-6.106;2023-11-21T06:54:49;102712.53;;;23.21;42.30
58698;BME280;44475;53.206;-6.106;2023-11-21T06:57:18;102723.03;;;23.29;42.14
58698;BME280;44475;53.206;-6.106;2023-11-21T06:59:44;102724.19;;;23.08;42.38
58698;BME280;44475;53.206;-6.106;2023-11-21T07:02:10;102724.19;;;23.25;42.14
58698;BME280;44475;53.206;-6.106;2023-11-21T07:04:36;102726.50;;;23.00;42.71
58698;BME280;44475;53.206;-6.106;2023-11-21T07:07:03;102730.03;;;23.02;42.71
58698;BME280;44475;53.206;-6.106;2023-11-21T07:09:29;102741.84;;;23.03;42.53
58698;BME280;44475;53.206;-6.106;2023-11-21T07:11:56;102740.94;;;23.18;42.05
58698;BME280;44475;53.206;-6.106;2023-11-21T07:14:23;102756.13;;;23.08;42.49
58698;BME280;44475;53.206;-6.106;2023-11-21T07:16:49;102759.41;;;23.15;42.32
58698;BME280;44475;53.206;-6.106;2023-11-21T07:19:15;102759.91;;;23.22;42.19
58698;BME280;44475;53.206;-6.106;2023-11-21T07:21:41;102756.47;;;23.18;42.11
58698;BME280;44475;53.206;-6.106;2023-11-21T07:24:07;102762.31;;;23.12;42.29
58698;BME280;44475;53.206;-6.106;2023-11-21T07:26:34;102766.19;;;23.07;42.45
58698;BME280;44475;53.206;-6.106;2023-11-21T07:29:01;102777.84;;;23.11;42.40
58698;BME280;44475;53.206;-6.106;2023-11-21T07:31:28;102778.38;;;23.02;42.41
58698;BME280;44475;53.206;-6.106;2023-11-21T07:33:55;102781.97;;;23.02;42.61
58698;BME280;44475;53.206;-6.106;2023-11-21T07:36:24;102786.84;;;23.13;42.10
58698;BME280;44475;53.206;-6.106;2023-11-21T07:38:50;102788.41;;;23.17;41.95
58698;BME280;44475;53.206;-6.106;2023-11-21T07:41:17;102805.63;;;23.03;42.41
58698;BME280;44475;53.206;-6.106;2023-11-21T07:43:46;102806.59;;;23.02;42.55
58698;BME280;44475;53.206;-6.106;2023-11-21T07:46:12;102801.63;;;23.09;42.41
58698;BME280;44475;53.206;-6.106;2023-11-21T07:48:39;102800.06;;;23.21;42.27
58698;BME280;44475;53.206;-6.106;2023-11-21T07:51:05;102799.19;;;23.04;42.43
58698;BME280;44475;53.206;-6.106;2023-11-21T07:53:35;102798.31;;;23.04;42.57
58698;BME280;44475;53.206;-6.106;2023-11-21T07:56:05;102797.94;;;23.10;42.38
58698;BME280;44475;53.206;-6.106;2023-11-21T07:58:31;102797.06;;;23.09;42.42
58698;BME280;44475;53.206;-6.106;2023-11-21T08:00:59;102794.75;;;23.02;42.52
58698;BME280;44475;53.206;-6.106;2023-11-21T08:03:26;102803.13;;;22.98;42.51
58698;BME280;44475;53.206;-6.106;2023-11-21T08:05:58;102810.59;;;22.95;42.77
58698;BME280;44475;53.206;-6.106;2023-11-21T08:08:24;102808.06;;;23.08;42.37
58698;BME280;44475;53.206;-6.106;2023-11-21T08:10:50;102819.91;;;23.08;42.54
58698;BME280;44475;53.206;-6.106;2023-11-21T08:13:26;102825.28;;;23.10;42.47
58698;BME280;44475;53.206;-6.106;2023-11-21T08:15:55;102828.13;;;23.25;41.90
58698;BME280;44475;53.206;-6.106;2023-11-21T08:18:22;102825.88;;;23.15;42.15
58698;BME280;44475;53.206;-6.106;2023-11-21T08:20:48;102825.13;;;23.13;42.34
58698;BME280;44475;53.206;-6.106;2023-11-21T08:23:15;102835.16;;;23.13;42.03
58698;BME280;44475;53.206;-6.106;2023-11-21T08:25:43;102844.50;;;23.08;42.04
58698;BME280;44475;53.206;-6.106;2023-11-21T08:28:09;102861.59;;;22.96;42.70
58698;BME280;44475;53.206;-6.106;2023-11-21T08:30:36;102852.50;;;22.95;42.69
58698;BME280;44475;53.206;-6.106;2023-11-21T08:33:02;102851.81;;;23.08;42.48
58698;BME280;44475;53.206;-6.106;2023-11-21T08:35:29;102863.31;;;23.15;42.01
58698;BME280;44475;53.206;-6.106;2023-11-21T08:37:56;102865.94;;;23.16;42.00
58698;BME280;44475;53.206;-6.106;2023-11-21T08:40:22;102864.59;;;23.07;42.00
58698;BME280;44475;53.206;-6.106;2023-11-21T08:42:49;102859.50;;;23.01;42.27
58698;BME280;44475;53.206;-6.106;2023-11-21T08:45:18;102862.81;;;22.90;42.79
58698;BME280;44475;53.206;-6.106;2023-11-21T08:47:44;102872.72;;;22.93;42.76
58698;BME280;44475;53.206;-6.106;2023-11-21T08:50:11;102870.44;;;23.01;42.52
58698;BME280;44475;53.206;-6.106;2023-11-21T08:52:38;102879.31;;;22.88;42.56
58698;BME280;44475;53.206;-6.106;2023-11-21T08:55:04;102888.78;;;22.81;43.04
58698;BME280;44475;53.206;-6.106;2023-11-21T08:57:36;102891.13;;;22.89;42.79
58698;BME280;44475;53.206;-6.106;2023-11-21T09:00:03;102888.91;;;22.96;42.87
58698;BME280;44475;53.206;-6.106;2023-11-21T09:02:32;102894.69;;;23.07;42.31
58698;BME280;44475;53.206;-6.106;2023-11-21T09:05:00;102896.50;;;22.91;42.96
58698;BME280;44475;53.206;-6.106;2023-11-21T09:07:29;102914.75;;;22.90;42.93
58698;BME280;44475;53.206;-6.106;2023-11-21T09:09:55;102909.44;;;22.87;43.13
58698;BME280;44475;53.206;-6.106;2023-11-21T09:12:21;102908.13;;;22.94;42.78
58698;BME280;44475;53.206;-6.106;2023-11-21T09:14:47;102910.63;;;22.99;42.63
58698;BME280;44475;53.206;-6.106;2023-11-21T09:17:13;102926.44;;;23.10;42.39
58698;BME280;44475;53.206;-6.106;2023-11-21T09:19:40;102928.72;;;23.02;42.63
58698;BME280;44475;53.206;-6.106;2023-11-21T09:22:06;102930.19;;;22.91;42.61
58698;BME280;44475;53.206;-6.106;2023-11-21T09:24:33;102929.16;;;22.94;42.91
58698;BME280;44475;53.206;-6.106;2023-11-21T09:26:59;102928.81;;;23.00;42.69
58698;BME280;44475;53.206;-6.106;2023-11-21T09:29:29;102920.25;;;23.06;42.62
58698;BME280;44475;53.206;-6.106;2023-11-21T09:31:55;102933.81;;;22.92;42.86
58698;BME280;44475;53.206;-6.106;2023-11-21T09:34:23;102932.28;;;22.86;43.21
58698;BME280;44475;53.206;-6.106;2023-11-21T09:36:49;102930.66;;;22.82;43.56
58698;BME280;44475;53.206;-6.106;2023-11-21T09:39:15;102932.34;;;22.84;43.57
58698;BME280;44475;53.206;-6.106;2023-11-21T09:41:46;102937.75;;;22.86;43.50
58698;BME280;44475;53.206;-6.106;2023-11-21T09:44:17;102922.00;;;22.91;43.50
58698;BME280;44475;53.206;-6.106;2023-11-21T09:46:43;102925.13;;;22.83;43.56
58698;BME280;44475;53.206;-6.106;2023-11-21T09:49:14;102928.66;;;22.85;43.56
58698;BME280;44475;53.206;-6.106;2023-11-21T09:51:43;102923.34;;;22.82;43.90
58698;BME280;44475;53.206;-6.106;2023-11-21T09:54:10;102927.28;;;22.76;43.69
58698;BME280;44475;53.206;-6.106;2023-11-21T09:56:37;102931.06;;;22.74;44.09
58698;BME280;44475;53.206;-6.106;2023-11-21T09:59:03;102917.16;;;22.78;43.86
58698;BME280;44475;53.206;-6.106;2023-11-21T10:01:33;102934.44;;;22.97;43.58
58698;BME280;44475;53.206;-6.106;2023-11-21T10:04:01;102933.00;;;22.89;43.46
58698;BME280;44475;53.206;-6.106;2023-11-21T10:06:27;102933.31;;;22.83;43.89
58698;BME280;44475;53.206;-6.106;2023-11-21T10:08:55;102923.50;;;22.79;44.10
58698;BME280;44475;53.206;-6.106;2023-11-21T10:11:25;102928.66;;;22.85;43.81
58698;BME280;44475;53.206;-6.106;2023-11-21T10:13:53;102931.56;;;22.82;44.05
58698;BME280;44475;53.206;-6.106;2023-11-21T10:16:20;102931.38;;;22.85;43.84
58698;BME280;44475;53.206;-6.106;2023-11-21T10:18:49;102928.00;;;22.80;43.81
58698;BME280;44475;53.206;-6.106;2023-11-21T10:21:18;102927.28;;;22.76;43.83
58698;BME280;44475;53.206;-6.106;2023-11-21T10:23:44;102931.38;;;22.85;43.61
58698;BME280;44475;53.206;-6.106;2023-11-21T10:26:12;102937.97;;;22.81;43.86
58698;BME280;44475;53.206;-6.106;2023-11-21T10:28:57;102934.28;;;22.82;43.73
58698;BME280;44475;53.206;-6.106;2023-11-21T10:31:25;102934.19;;;22.84;44.06
58698;BME280;44475;53.206;-6.106;2023-11-21T10:33:52;102924.16;;;22.84;43.85
58698;BME280;44475;53.206;-6.106;2023-11-21T10:36:28;102919.72;;;22.82;43.82
58698;BME280;44475;53.206;-6.106;2023-11-21T10:38:54;102925.94;;;22.85;43.84
58698;BME280;44475;53.206;-6.106;2023-11-21T10:41:20;102929.72;;;22.83;43.83
58698;BME280;44475;53.206;-6.106;2023-11-21T10:43:47;102940.47;;;22.86;43.75
58698;BME280;44475;53.206;-6.106;2023-11-21T10:46:13;102942.91;;;22.92;43.53
58698;BME280;44475;53.206;-6.106;2023-11-21T10:48:43;102945.38;;;22.97;43.33
58698;BME280;44475;53.206;-6.106;2023-11-21T10:51:09;102947.13;;;22.98;43.04
58698;BME280;44475;53.206;-6.106;2023-11-21T10:53:39;102946.03;;;23.02;43.22
58698;BME280;44475;53.206;-6.106;2023-11-21T10:56:08;102937.75;;;23.04;42.94
58698;BME280;44475;53.206;-6.106;2023-11-21T10:58:37;102940.69;;;22.99;43.07
58698;BME280;44475;53.206;-6.106;2023-11-21T11:01:05;102949.78;;;22.99;43.11
58698;BME280;44475;53.206;-6.106;2023-11-21T11:03:32;102949.94;;;22.96;43.09
58698;BME280;44475;53.206;-6.106;2023-11-21T11:05:59;102958.06;;;22.98;43.07
58698;BME280;44475;53.206;-6.106;2023-11-21T11:08:26;102962.13;;;22.91;43.14
58698;BME280;44475;53.206;-6.106;2023-11-21T11:10:53;102961.06;;;22.93;43.36
58698;BME280;44475;53.206;-6.106;2023-11-21T11:13:19;102976.09;;;22.84;43.67
58698;BME280;44475;53.206;-6.106;2023-11-21T11:15:48;102965.06;;;22.86;43.58
58698;BME280;44475;53.206;-6.106;2023-11-21T11:18:15;102963.16;;;22.88;43.73
58698;BME280;44475;53.206;-6.106;2023-11-21T11:20:42;102960.50;;;22.86;43.80
58698;BME280;44475;53.206;-6.106;2023-11-21T11:28:21;102975.63;;;22.94;43.42
58698;BME280;44475;53.206;-6.106;2023-11-21T11:33:30;102961.31;;;22.88;43.58
58698;BME280;44475;53.206;-6.106;2023-11-21T11:38:31;102942.97;;;22.91;43.69
58698;BME280;44475;53.206;-6.106;2023-11-21T11:41:00;102941.44;;;23.03;43.49
58698;BME280;44475;53.206;-6.106;2023-11-21T11:43:28;102933.81;;;22.92;43.70
58698;BME280;44475;53.206;-6.106;2023-11-21T11:45:58;102920.69;;;22.98;43.70
58698;BME280;44475;53.206;-6.106;2023-11-21T11:48:25;102915.94;;;23.02;43.67
58698;BME280;44475;53.206;-6.106;2023-11-21T11:51:04;102927.69;;;23.04;43.49
58698;BME280;44475;53.206;-6.106;2023-11-21T11:53:46;102921.72;;;22.96;43.54
58698;BME280;44475;53.206;-6.106;2023-11-21T11:56:26;102926.22;;;22.97;43.65
58698;BME280;44475;53.206;-6.106;2023-11-21T11:58:59;102930.50;;;23.03;43.78
58698;BME280;44475;53.206;-6.106;2023-11-21T12:01:28;102922.91;;;23.08;43.73
58698;BME280;44475;53.206;-6.106;2023-11-21T12:06:43;102929.41;;;23.05;43.82
58698;BME280;44475;53.206;-6.106;2023-11-21T12:09:12;102927.75;;;23.03;43.68
58698;BME280;44475;53.206;-6.106;2023-11-21T12:11:44;102927.78;;;23.19;43.42
58698;BME280;44475;53.206;-6.106;2023-11-21T12:14:10;102930.69;;;23.16;43.59
58698;BME280;44475;53.206;-6.106;2023-11-21T12:16:37;102938.00;;;23.15;43.35
58698;BME280;44475;53.206;-6.106;2023-11-21T12:19:04;102944.69;;;23.09;43.45
58698;BME280;44475;53.206;-6.106;2023-11-21T12:21:30;102954.31;;;23.17;43.34
58698;BME280;44475;53.206;-6.106;2023-11-21T12:23:56;102950.56;;;23.19;43.31
58698;BME280;44475;53.206;-6.106;2023-11-21T12:26:23;102947.97;;;23.16;43.21
58698;BME280;44475;53.206;-6.106;2023-11-21T12:28:53;102954.69;;;23.11;43.37
58698;BME280;44475;53.206;-6.106;2023-11-21T12:31:21;102959.19;;;23.12;43.47
58698;BME280;44475;53.206;-6.106;2023-11-21T12:33:48;102959.41;;;23.07;43.51
58698;BME280;44475;53.206;-6.106;2023-11-21T12:36:14;102956.28;;;23.15;43.40
58698;BME280;44475;53.206;-6.106;2023-11-21T12:38:40;102960.75;;;23.16;43.25
58698;BME280;44475;53.206;-6.106;2023-11-21T12:41:10;102954.31;;;23.17;43.27
58698;BME280;44475;53.206;-6.106;2023-11-21T12:43:37;102963.19;;;23.22;43.23
58698;BME280;44475;53.206;-6.106;2023-11-21T12:46:08;102961.31;;;23.23;43.25
58698;BME280;44475;53.206;-6.106;2023-11-21T12:48:38;102968.56;;;23.24;43.13
58698;BME280;44475;53.206;-6.106;2023-11-21T12:51:10;102969.84;;;23.16;43.18
58698;BME280;44475;53.206;-6.106;2023-11-21T12:53:45;102972.19;;;23.24;43.12